Terminal Aerodrome Forecast
Issued by NWS Charleston, WV

Current Version | Previous Version | Graphics & Text | Print | Product List | Glossary On
Versions: 1 2 3 4 5 6 7 8 9 10 11 12 13 14 15 16 17 18 19 20 21 22 23 24
000
FTUS41 KRLX 210200 AAA
TAFHTS
TAF AMD
KHTS 210258Z 2103/2124 09003KT 4SM BR SKC
     FM210700 00000KT 1SM BR SCT001
     FM210800 00000KT 1/2SM FG OVC001
     FM211100 00000KT 1 1/2SM BR SCT002 SCT090
     FM211200 00000KT 4SM BR SCT090
     FM211300 VRB03KT P6SM SCT060=

USA.gov is the U.S. government's official web portal to all federal, state and local government web resources and services.